Stone, United Kingdom
Current Conditions -  °F | °C
As of 12:50 AM on Tuesday 23 Dec 2014 (Local Time) from EGOS Reporting Station
Drizzle Drizzle  
Wind Chill: 52°   Ceiling: 1600
Heat Index: 52°   Visibility: 2.8mi
Dew Point: 48°   Wind: 15mph
Humidity: 88%   Direction: 220°SW
Pressure: 29.91"   Gusts: NA
Location:  52.91°N, 2.15°W
Report Text: EGOS 230050Z AUTO 22013KT 4600 -DZ OVC016/// 11/09 Q1013
Loading
Personal Weather Stations






























Interactive Weather Map New forecast layout! Learn more

10-Day Weather Forecast

Advertisements
Track Severe Weather on mobile